Аэропорт: Наримановка. Костанай

ICAO: UAUU

METAR:
2019-09-16 01:30:00
UAUU 160130Z 19003MPS CAVOK 12/06 Q1010 NOSIG RMK QFE742/0989
METAR:
2019-09-15 23:00:00
TAF UAUU 152300Z 1600/1609 18003G08MPS 9999 BKN030 TEMPO 1600/1604 17005G10MPS 3100 -SHRA BKN015CB BECMG 1604/1605 21008G13MPS BKN030CB TEMPO 1604/1609 4000 -SHRA BKN015CB